Time;durP1;ratioP1;P1;durP2;ratioP2;P2;SDS_P1;SDS_P2;PMS_P1;PMS_P2;Temp;Humidity;BMP_temperature;BMP_pressure;BME280_temperature;BME280_humidity;BME280_pressure;Samples;Min_cycle;Max_cycle;Signal;HPM_P1;HPM_P2
2022/08/23 00:00:06;;;;;;;;;;;17.30;99.90;;;;;;4927478;28;20377;-86
2022/08/23 00:02:32;;;;;;;;;;;17.30;99.90;;;;;;4943406;28;20400;-86
2022/08/23 00:05:16;;;;;;;;;;;17.30;99.90;;;;;;4939575;28;20017;-85
2022/08/23 00:07:44;;;;;;;;;;;17.30;99.90;;;;;;4955624;28;19930;-86
2022/08/23 00:10:12;;;;;;;;;;;17.20;99.90;;;;;;4948670;28;19966;-85
2022/08/23 00:12:38;;;;;;;;;;;17.20;99.90;;;;;;4938189;28;20481;-85
2022/08/23 00:15:04;;;;;;;;;;;17.30;99.90;;;;;;4941765;28;20024;-84
2022/08/23 00:17:31;;;;;;;;;;;17.20;99.90;;;;;;4925952;28;20016;-84
2022/08/23 00:20:07;;;;;;;;;;;17.20;99.90;;;;;;4939709;28;19928;-84
2022/08/23 00:22:32;;;;;;;;;;;17.20;99.90;;;;;;4954930;28;19926;-85
2022/08/23 00:24:58;;;;;;;;;;;17.20;99.90;;;;;;4954269;28;19930;-84
2022/08/23 00:27:25;;;;;;;;;;;17.20;99.90;;;;;;4938639;28;19926;-84
2022/08/23 00:30:06;;;;;;;;;;;17.30;99.90;;;;;;4953458;28;19922;-85
2022/08/23 00:33:01;;;;;;;;;;;17.20;99.90;;;;;;4925155;28;19927;-84
2022/08/23 00:35:26;;;;;;;;;;;17.10;99.90;;;;;;4935125;28;19930;-85
2022/08/23 00:37:53;;;;;;;;;;;17.20;99.90;;;;;;4920208;29;19945;-84
2022/08/23 00:40:19;;;;;;;;;;;17.20;99.90;;;;;;4953588;28;19930;-84
2022/08/23 00:49:06;;;;;;;;;;;17.00;99.90;;;;;;4953578;28;19933;-83
2022/08/23 00:51:35;;;;;;;;;;;17.00;99.90;;;;;;4951039;28;19930;-83
2022/08/23 00:54:01;;;;;;;;;;;16.90;99.90;;;;;;4937620;28;19932;-84
2022/08/23 00:56:29;;;;;;;;;;;16.90;99.90;;;;;;4953665;28;19997;-83
2022/08/23 00:58:55;;;;;;;;;;;16.90;99.90;;;;;;4952240;28;19926;-82
2022/08/23 01:01:21;;;;;;;;;;;17.00;99.90;;;;;;4936518;28;20358;-83
2022/08/23 01:03:49;;;;;;;;;;;16.80;99.90;;;;;;4932311;28;19930;-83
2022/08/23 01:06:18;;;;;;;;;;;16.80;99.90;;;;;;4937414;28;19926;-82
2022/08/23 01:08:51;;;;;;;;;;;16.80;99.90;;;;;;4953406;28;19934;-83
2022/08/23 01:11:27;;;;;;;;;;;16.80;99.90;;;;;;4940781;28;19941;-82
2022/08/23 01:13:57;;;;;;;;;;;16.70;99.90;;;;;;4936702;28;19926;-83
2022/08/23 01:16:27;;;;;;;;;;;16.70;99.90;;;;;;4940748;28;19926;-83
2022/08/23 01:18:54;;;;;;;;;;;16.70;99.90;;;;;;4937176;28;19926;-83
2022/08/23 01:21:32;;;;;;;;;;;16.60;99.90;;;;;;4920838;28;19934;-83
2022/08/23 01:23:59;;;;;;;;;;;16.60;99.90;;;;;;4937395;28;19934;-83
2022/08/23 01:26:26;;;;;;;;;;;16.50;99.90;;;;;;4930645;28;20337;-83
2022/08/23 01:29:10;;;;;;;;;;;16.50;99.90;;;;;;4935963;28;19973;-82
2022/08/23 01:31:36;;;;;;;;;;;16.50;99.90;;;;;;4935575;28;19984;-83
2022/08/23 01:34:05;;;;;;;;;;;16.50;99.90;;;;;;4936465;28;19976;-82
2022/08/23 01:37:03;;;;;;;;;;;16.40;99.90;;;;;;4926992;28;19927;-83
2022/08/23 01:39:30;;;;;;;;;;;16.40;99.90;;;;;;4905996;28;19957;-83
2022/08/23 01:41:56;;;;;;;;;;;16.40;99.90;;;;;;4937069;28;19956;-84
2022/08/23 01:44:22;;;;;;;;;;;16.40;99.90;;;;;;4938113;28;20370;-83
2022/08/23 01:46:47;;;;;;;;;;;16.40;99.90;;;;;;4952451;28;19926;-82
2022/08/23 01:49:13;;;;;;;;;;;16.40;99.90;;;;;;4920796;28;19932;-82
2022/08/23 01:51:39;;;;;;;;;;;16.40;99.90;;;;;;4936908;28;19938;-82
2022/08/23 01:54:05;;;;;;;;;;;16.40;99.90;;;;;;4952515;28;20419;-82
2022/08/23 01:56:32;;;;;;;;;;;16.30;99.90;;;;;;4920793;28;19934;-82
2022/08/23 01:58:58;;;;;;;;;;;16.20;99.90;;;;;;4935027;28;20033;-82
2022/08/23 02:01:24;;;;;;;;;;;16.10;99.90;;;;;;4918460;29;20342;-83
2022/08/23 02:03:50;;;;;;;;;;;16.10;99.90;;;;;;4946873;28;20008;-82
2022/08/23 02:09:02;;;;;;;;;;;16.00;99.90;;;;;;4970220;23;19930;-88
2022/08/23 02:11:31;;;;;;;;;;;16.00;99.90;;;;;;4934080;29;19935;-91
2022/08/23 02:14:00;;;;;;;;;;;16.00;99.90;;;;;;4916489;29;20393;-84
2022/08/23 02:16:28;;;;;;;;;;;16.00;99.90;;;;;;4934035;29;20054;-90
2022/08/23 02:19:15;;;;;;;;;;;16.00;99.90;;;;;;4918987;29;19958;-92
2022/08/23 02:21:59;;;;;;;;;;;16.10;99.90;;;;;;4926525;29;19926;-89
2022/08/23 02:27:29;;;;;;;;;;;16.10;99.90;;;;;;4932093;29;19955;-90
2022/08/23 02:29:55;;;;;;;;;;;16.00;99.90;;;;;;4904237;29;19951;-88
2022/08/23 02:32:21;;;;;;;;;;;16.00;99.90;;;;;;4919157;29;20313;-86
2022/08/23 02:35:07;;;;;;;;;;;16.00;99.90;;;;;;4935498;29;19930;-92
2022/08/23 02:37:33;;;;;;;;;;;16.00;99.90;;;;;;4919458;29;19926;-80
2022/08/23 02:39:59;;;;;;;;;;;16.00;99.90;;;;;;4918763;29;20435;-86
2022/08/23 02:42:25;;;;;;;;;;;16.00;99.90;;;;;;4935103;29;19941;-81
2022/08/23 02:44:51;;;;;;;;;;;15.90;99.90;;;;;;4917895;29;20363;-84
2022/08/23 02:47:18;;;;;;;;;;;15.90;99.90;;;;;;4903467;29;20009;-88
2022/08/23 02:49:44;;;;;;;;;;;15.80;99.90;;;;;;4918623;29;19955;-80
2022/08/23 02:52:11;;;;;;;;;;;15.80;99.90;;;;;;4905669;29;20509;-85
2022/08/23 02:54:37;;;;;;;;;;;15.80;99.90;;;;;;4929721;28;19927;-80
2022/08/23 02:57:03;;;;;;;;;;;15.70;99.90;;;;;;4933529;29;19926;-84
2022/08/23 02:59:31;;;;;;;;;;;15.70;99.90;;;;;;4901126;29;19922;-87
2022/08/23 03:01:57;;;;;;;;;;;15.60;99.90;;;;;;4935600;29;21118;-82
2022/08/23 03:04:24;;;;;;;;;;;15.60;99.90;;;;;;4914715;29;20459;-87
2022/08/23 03:06:52;;;;;;;;;;;15.50;99.90;;;;;;4905288;29;19930;-85
2022/08/23 03:09:19;;;;;;;;;;;15.50;99.90;;;;;;4950617;28;19930;-87
2022/08/23 03:11:46;;;;;;;;;;;15.50;99.90;;;;;;4938268;28;20400;-81
2022/08/23 03:14:12;;;;;;;;;;;15.40;99.90;;;;;;4950931;28;19965;-82
2022/08/23 03:16:39;;;;;;;;;;;15.40;99.90;;;;;;4935838;28;20051;-80
2022/08/23 03:19:05;;;;;;;;;;;15.40;99.90;;;;;;4950494;28;19962;-82
2022/08/23 03:21:31;;;;;;;;;;;15.40;99.90;;;;;;4937136;28;20276;-80
2022/08/23 03:23:56;;;;;;;;;;;15.40;99.90;;;;;;4935839;28;19926;-82
2022/08/23 03:26:22;;;;;;;;;;;15.50;99.90;;;;;;4936581;28;19926;-80
2022/08/23 03:28:49;;;;;;;;;;;15.50;99.90;;;;;;4934197;28;19933;-80
2022/08/23 03:31:15;;;;;;;;;;;15.50;99.90;;;;;;4951433;28;19934;-82
2022/08/23 03:33:41;;;;;;;;;;;15.50;99.90;;;;;;4950634;28;19926;-80
2022/08/23 03:36:09;;;;;;;;;;;15.50;99.90;;;;;;4920044;28;20042;-80
2022/08/23 03:38:36;;;;;;;;;;;15.40;99.90;;;;;;4951287;28;20354;-80
2022/08/23 03:41:02;;;;;;;;;;;15.30;99.90;;;;;;4918795;28;19930;-81
2022/08/23 03:43:28;;;;;;;;;;;15.20;99.90;;;;;;4950152;28;19930;-84
2022/08/23 03:45:54;;;;;;;;;;;15.20;99.90;;;;;;4934672;28;19926;-82
2022/08/23 03:48:20;;;;;;;;;;;15.20;99.90;;;;;;4950980;28;19927;-79
2022/08/23 03:50:45;;;;;;;;;;;15.10;99.90;;;;;;4930373;28;19939;-81
2022/08/23 03:53:11;;;;;;;;;;;15.10;99.90;;;;;;4931444;28;19988;-81
2022/08/23 03:55:38;;;;;;;;;;;15.20;99.90;;;;;;4948374;28;19992;-81
2022/08/23 03:58:04;;;;;;;;;;;15.10;99.90;;;;;;4952876;28;19934;-81
2022/08/23 04:00:30;;;;;;;;;;;15.20;99.90;;;;;;4919364;29;20373;-80
2022/08/23 04:02:56;;;;;;;;;;;15.30;99.90;;;;;;4948156;28;19973;-83
2022/08/23 04:05:22;;;;;;;;;;;15.30;99.90;;;;;;4955843;28;19926;-85
2022/08/23 04:07:47;;;;;;;;;;;15.40;99.90;;;;;;4949786;28;19952;-80
2022/08/23 04:10:14;;;;;;;;;;;15.40;99.90;;;;;;4934567;29;19997;-81
2022/08/23 04:12:40;;;;;;;;;;;15.40;99.90;;;;;;4920138;29;19961;-83
2022/08/23 04:15:07;;;;;;;;;;;15.30;99.90;;;;;;4935648;29;19930;-82
2022/08/23 04:17:34;;;;;;;;;;;15.30;99.90;;;;;;4920536;29;19926;-81
2022/08/23 04:20:02;;;;;;;;;;;15.20;99.90;;;;;;4937823;29;19926;-85
2022/08/23 04:22:28;;;;;;;;;;;15.20;99.90;;;;;;4936350;28;20021;-81
2022/08/23 04:24:55;;;;;;;;;;;15.20;99.90;;;;;;4918634;29;20014;-83
2022/08/23 04:27:22;;;;;;;;;;;15.10;99.90;;;;;;4937419;29;19977;-87
2022/08/23 04:29:49;;;;;;;;;;;15.10;99.90;;;;;;4891664;29;19934;-84
2022/08/23 04:32:17;;;;;;;;;;;15.10;99.90;;;;;;4935932;29;19931;-85
2022/08/23 04:34:44;;;;;;;;;;;15.10;99.90;;;;;;4938047;29;19927;-83
2022/08/23 04:37:10;;;;;;;;;;;15.10;99.90;;;;;;4920508;29;20041;-84
2022/08/23 04:42:22;;;;;;;;;;;15.10;99.90;;;;;;4936721;29;19970;-87
2022/08/23 04:44:50;;;;;;;;;;;15.10;99.90;;;;;;4933133;29;19930;-85
2022/08/23 04:47:16;;;;;;;;;;;15.10;99.90;;;;;;4904064;28;19973;-85
2022/08/23 04:50:01;;;;;;;;;;;15.20;99.90;;;;;;4923824;29;19926;-88
2022/08/23 04:52:27;;;;;;;;;;;15.20;99.90;;;;;;4921301;29;19937;-85
2022/08/23 04:54:54;;;;;;;;;;;15.30;99.90;;;;;;4936151;29;19927;-83
2022/08/23 04:57:20;;;;;;;;;;;15.30;99.90;;;;;;4936005;28;19927;-84
2022/08/23 04:59:45;;;;;;;;;;;15.40;99.90;;;;;;4921265;29;19930;-85
2022/08/23 05:02:13;;;;;;;;;;;15.40;99.90;;;;;;4932175;29;20365;-83
2022/08/23 05:04:40;;;;;;;;;;;15.40;99.90;;;;;;4918354;29;20514;-82
2022/08/23 05:07:07;;;;;;;;;;;15.40;99.90;;;;;;4936393;28;19953;-85
2022/08/23 05:09:32;;;;;;;;;;;15.50;99.90;;;;;;4954267;28;19933;-82
2022/08/23 05:11:58;;;;;;;;;;;15.50;99.90;;;;;;4938724;28;19926;-86
2022/08/23 05:14:24;;;;;;;;;;;15.60;99.90;;;;;;4953792;28;19937;-84
2022/08/23 05:16:50;;;;;;;;;;;15.60;99.90;;;;;;4953669;28;19976;-82
2022/08/23 05:19:16;;;;;;;;;;;15.60;99.90;;;;;;4937330;28;19926;-86
2022/08/23 05:21:43;;;;;;;;;;;15.70;99.90;;;;;;4940090;28;19948;-81
2022/08/23 05:24:09;;;;;;;;;;;15.70;99.90;;;;;;4926752;28;20493;-84
2022/08/23 05:26:35;;;;;;;;;;;15.80;99.90;;;;;;4954224;28;20063;-83
2022/08/23 05:29:00;;;;;;;;;;;15.80;99.90;;;;;;4935939;28;19989;-82
2022/08/23 05:31:28;;;;;;;;;;;15.90;99.90;;;;;;4936387;28;19926;-83
2022/08/23 05:33:54;;;;;;;;;;;16.00;99.90;;;;;;4931987;28;20408;-84
2022/08/23 05:36:20;;;;;;;;;;;16.00;99.90;;;;;;4950048;28;19926;-83
2022/08/23 05:38:46;;;;;;;;;;;16.00;99.90;;;;;;4938282;28;19930;-81
2022/08/23 05:41:13;;;;;;;;;;;16.00;99.90;;;;;;4954747;28;20289;-84
2022/08/23 05:43:38;;;;;;;;;;;16.10;99.90;;;;;;4952970;28;19930;-82
2022/08/23 05:46:06;;;;;;;;;;;16.10;99.90;;;;;;4936577;28;19934;-83
2022/08/23 05:48:33;;;;;;;;;;;16.20;99.90;;;;;;4947216;28;20017;-83
2022/08/23 05:51:08;;;;;;;;;;;16.20;99.90;;;;;;4932580;28;19926;-84
2022/08/23 05:53:35;;;;;;;;;;;16.20;99.90;;;;;;4932902;28;19952;-84
2022/08/23 05:56:11;;;;;;;;;;;16.20;99.90;;;;;;4951237;28;19926;-82
2022/08/23 05:58:37;;;;;;;;;;;16.20;99.90;;;;;;4932406;28;19930;-85
2022/08/23 06:01:02;;;;;;;;;;;16.20;99.90;;;;;;4932910;28;20351;-83
2022/08/23 06:03:29;;;;;;;;;;;16.30;99.90;;;;;;4933214;28;20364;-82
2022/08/23 06:05:59;;;;;;;;;;;16.30;99.90;;;;;;4953050;28;20025;-83
2022/08/23 06:08:25;;;;;;;;;;;16.40;99.90;;;;;;4954013;28;20388;-85
2022/08/23 06:11:01;;;;;;;;;;;16.50;99.90;;;;;;4949840;28;19934;-84
2022/08/23 06:13:29;;;;;;;;;;;16.60;99.90;;;;;;4954023;28;20380;-85
2022/08/23 06:15:56;;;;;;;;;;;16.80;99.90;;;;;;4931866;28;19984;-85
2022/08/23 06:18:22;;;;;;;;;;;16.90;99.90;;;;;;4918942;28;20297;-85
2022/08/23 06:20:48;;;;;;;;;;;17.00;99.90;;;;;;4935971;28;19942;-86
2022/08/23 06:23:14;;;;;;;;;;;17.10;99.90;;;;;;4953158;28;20025;-88
2022/08/23 06:25:39;;;;;;;;;;;17.20;99.90;;;;;;4954322;28;20334;-81
2022/08/23 06:28:05;;;;;;;;;;;17.20;99.90;;;;;;4936487;28;20054;-82
2022/08/23 06:30:31;;;;;;;;;;;17.30;99.90;;;;;;4917391;28;19930;-86
2022/08/23 06:32:57;;;;;;;;;;;17.40;99.90;;;;;;4937483;28;20721;-85
2022/08/23 06:35:23;;;;;;;;;;;17.50;99.90;;;;;;4934134;28;20053;-86
2022/08/23 06:37:49;;;;;;;;;;;17.60;99.90;;;;;;4921790;28;19926;-86
2022/08/23 06:40:14;;;;;;;;;;;17.80;99.90;;;;;;4938986;28;20031;-83
2022/08/23 06:42:42;;;;;;;;;;;18.00;99.90;;;;;;4937122;28;19956;-87
2022/08/23 06:45:10;;;;;;;;;;;18.20;99.90;;;;;;4937333;28;19958;-84
2022/08/23 06:47:35;;;;;;;;;;;18.30;99.90;;;;;;4936226;28;20362;-87
2022/08/23 06:50:02;;;;;;;;;;;18.50;99.90;;;;;;4954398;28;19937;-87
2022/08/23 06:52:28;;;;;;;;;;;18.60;99.90;;;;;;4936225;28;19922;-86
2022/08/23 06:54:54;;;;;;;;;;;18.80;99.90;;;;;;4932954;28;20334;-83
2022/08/23 06:57:38;;;;;;;;;;;18.90;99.90;;;;;;4946893;28;19926;-88
2022/08/23 07:00:09;;;;;;;;;;;19.10;99.90;;;;;;4933835;28;19968;-81
2022/08/23 07:02:35;;;;;;;;;;;19.40;99.90;;;;;;4950834;28;19981;-85
2022/08/23 07:05:02;;;;;;;;;;;19.80;99.90;;;;;;4954362;28;19937;-85
2022/08/23 07:07:28;;;;;;;;;;;20.40;99.90;;;;;;4945647;28;20057;-85
2022/08/23 07:09:55;;;;;;;;;;;20.70;99.90;;;;;;4949441;28;20018;-81
2022/08/23 07:12:21;;;;;;;;;;;21.10;99.90;;;;;;4933857;28;20023;-82
2022/08/23 07:14:46;;;;;;;;;;;21.50;99.90;;;;;;4925164;28;19937;-80
2022/08/23 07:17:13;;;;;;;;;;;22.10;99.90;;;;;;4932986;28;20219;-83
2022/08/23 07:19:42;;;;;;;;;;;22.80;99.90;;;;;;4934949;28;19926;-84
2022/08/23 07:22:09;;;;;;;;;;;23.60;99.90;;;;;;4937756;28;20108;-83
2022/08/23 07:24:35;;;;;;;;;;;24.40;99.90;;;;;;4950486;28;19930;-82
2022/08/23 07:27:05;;;;;;;;;;;25.10;99.90;;;;;;4938439;28;19926;-85
2022/08/23 07:29:31;;;;;;;;;;;25.70;99.90;;;;;;4931630;28;20297;-82
2022/08/23 07:31:59;;;;;;;;;;;26.40;99.90;;;;;;4941858;28;19941;-83
2022/08/23 07:34:25;;;;;;;;;;;26.80;99.90;;;;;;4950517;28;20020;-85
2022/08/23 07:36:52;;;;;;;;;;;27.20;99.90;;;;;;4938460;28;20060;-85
2022/08/23 07:39:19;;;;;;;;;;;27.20;99.90;;;;;;4961907;28;20392;-83
2022/08/23 07:41:45;;;;;;;;;;;27.30;99.90;;;;;;4941059;28;20033;-80
2022/08/23 07:44:12;;;;;;;;;;;26.80;99.90;;;;;;4955340;28;19930;-87
2022/08/23 07:46:39;;;;;;;;;;;26.30;99.90;;;;;;4954804;28;20322;-86
2022/08/23 07:49:05;;;;;;;;;;;25.70;99.90;;;;;;4941679;28;19940;-82
2022/08/23 07:51:31;;;;;;;;;;;25.40;99.90;;;;;;4958249;28;19926;-87
2022/08/23 07:53:57;;;;;;;;;;;25.30;99.90;;;;;;4957451;28;19934;-80
2022/08/23 07:56:24;;;;;;;;;;;26.00;99.90;;;;;;4943170;28;19925;-87
2022/08/23 07:58:51;;;;;;;;;;;26.90;99.90;;;;;;4948629;28;20401;-84
2022/08/23 08:01:20;;;;;;;;;;;27.50;99.90;;;;;;4925381;28;19934;-81
2022/08/23 08:03:48;;;;;;;;;;;28.10;99.90;;;;;;4951822;28;19969;-82
2022/08/23 08:06:18;;;;;;;;;;;28.60;99.90;;;;;;4942651;28;19930;-83
2022/08/23 08:08:44;;;;;;;;;;;28.80;97.00;;;;;;4951102;28;21160;-85
2022/08/23 08:11:11;;;;;;;;;;;29.20;97.40;;;;;;4954026;28;20017;-81
2022/08/23 08:13:52;;;;;;;;;;;29.30;94.70;;;;;;5168233;27;19923;-78
2022/08/23 08:16:19;;;;;;;;;;;29.70;94.50;;;;;;5141938;27;19977;-78
2022/08/23 08:18:45;;;;;;;;;;;29.80;93.20;;;;;;5128767;27;19923;-82
2022/08/23 08:21:15;;;;;;;;;;;30.10;92.60;;;;;;5094954;27;19923;-82
2022/08/23 08:23:40;;;;;;;;;;;30.10;91.00;;;;;;5108940;27;20373;-82
2022/08/23 08:26:07;;;;;;;;;;;30.30;91.00;;;;;;5093114;27;19934;-80
2022/08/23 08:28:34;;;;;;;;;;;30.60;90.40;;;;;;5133608;27;19923;-83
2022/08/23 08:31:01;;;;;;;;;;;31.00;90.50;;;;;;5139955;27;19923;-83
2022/08/23 08:33:27;;;;;;;;;;;31.00;86.30;;;;;;5109922;27;20007;-82
2022/08/23 08:35:54;;;;;;;;;;;30.90;88.10;;;;;;5109394;27;19931;-85
2022/08/23 08:38:20;;;;;;;;;;;31.20;87.90;;;;;;5144720;27;21103;-81
2022/08/23 08:40:47;;;;;;;;;;;31.30;86.90;;;;;;5132468;27;19927;-83
2022/08/23 08:43:19;;;;;;;;;;;31.40;85.60;;;;;;5127078;27;20006;-83
2022/08/23 08:46:05;;;;;;;;;;;31.10;83.90;;;;;;5107865;27;19984;-81
2022/08/23 08:48:38;;;;;;;;;;;31.00;87.60;;;;;;5130716;27;19923;-80
2022/08/23 08:51:08;;;;;;;;;;;30.50;83.20;;;;;;5125663;27;19931;-83
2022/08/23 08:53:36;;;;;;;;;;;29.80;84.20;;;;;;5158979;27;19932;-81
2022/08/23 08:56:19;;;;;;;;;;;29.10;87.60;;;;;;5129259;27;19966;-83
2022/08/23 08:58:53;;;;;;;;;;;28.50;89.90;;;;;;5107167;27;20008;-83
2022/08/23 09:01:21;;;;;;;;;;;27.90;90.80;;;;;;5133397;27;20060;-84
2022/08/23 09:03:47;;;;;;;;;;;27.60;92.40;;;;;;5132596;27;19945;-81
2022/08/23 09:06:33;;;;;;;;;;;27.40;91.60;;;;;;5112818;27;20022;-83
2022/08/23 09:09:08;;;;;;;;;;;27.20;91.20;;;;;;5125981;27;19938;-85
2022/08/23 09:11:50;;;;;;;;;;;27.10;94.10;;;;;;5122414;27;19935;-82
2022/08/23 09:14:15;;;;;;;;;;;27.20;96.40;;;;;;5126263;27;19939;-82
2022/08/23 09:16:49;;;;;;;;;;;27.30;96.60;;;;;;5128440;27;19924;-86
2022/08/23 09:19:16;;;;;;;;;;;27.40;96.40;;;;;;5115933;27;20057;-88
2022/08/23 09:21:47;;;;;;;;;;;27.40;95.70;;;;;;5142282;27;20031;-84
2022/08/23 09:24:14;;;;;;;;;;;27.50;97.00;;;;;;5115784;27;20036;-88
2022/08/23 09:26:40;;;;;;;;;;;27.60;96.60;;;;;;5099590;27;20599;-83
2022/08/23 09:29:29;;;;;;;;;;;27.70;96.60;;;;;;5124056;27;19928;-82
2022/08/23 09:32:01;;;;;;;;;;;27.80;95.00;;;;;;5104435;27;19928;-82
2022/08/23 09:34:30;;;;;;;;;;;28.10;97.30;;;;;;5106893;27;19971;-84
2022/08/23 09:37:11;;;;;;;;;;;28.20;94.30;;;;;;5138268;27;20015;-83
2022/08/23 09:39:38;;;;;;;;;;;28.30;94.50;;;;;;5107517;27;19953;-82
2022/08/23 09:42:08;;;;;;;;;;;28.50;94.60;;;;;;5107431;27;19962;-84
2022/08/23 09:44:41;;;;;;;;;;;28.60;95.80;;;;;;5121728;27;19931;-84
2022/08/23 09:47:11;;;;;;;;;;;28.70;94.20;;;;;;5093995;27;20001;-83
2022/08/23 09:49:39;;;;;;;;;;;28.70;95.00;;;;;;5142984;27;19923;-81
2022/08/23 09:52:11;;;;;;;;;;;28.90;94.50;;;;;;5098942;27;19931;-80
2022/08/23 09:54:39;;;;;;;;;;;29.00;94.80;;;;;;5120692;27;20535;-83
2022/08/23 09:57:08;;;;;;;;;;;29.10;94.20;;;;;;5093029;28;19932;-82
2022/08/23 09:59:38;;;;;;;;;;;29.10;92.60;;;;;;5115166;27;20437;-82
2022/08/23 10:02:08;;;;;;;;;;;29.10;93.10;;;;;;5110409;27;19977;-84
2022/08/23 10:04:46;;;;;;;;;;;29.10;90.70;;;;;;5118561;27;20576;-81
2022/08/23 10:07:26;;;;;;;;;;;29.10;90.20;;;;;;5121479;27;19928;-79
2022/08/23 10:09:53;;;;;;;;;;;28.90;90.90;;;;;;5126688;27;21048;-82
2022/08/23 10:12:18;;;;;;;;;;;29.10;92.70;;;;;;5105363;27;19924;-78
2022/08/23 10:14:45;;;;;;;;;;;29.30;92.40;;;;;;5089746;27;19938;-83
2022/08/23 10:17:35;;;;;;;;;;;29.40;91.70;;;;;;5112755;27;20354;-84
2022/08/23 10:20:01;;;;;;;;;;;29.50;91.50;;;;;;5122744;27;20358;-82
2022/08/23 10:22:34;;;;;;;;;;;29.70;92.10;;;;;;5090748;28;20498;-81
2022/08/23 10:25:11;;;;;;;;;;;30.00;92.70;;;;;;5106190;27;19928;-81
2022/08/23 10:30:55;;;;;;;;;;;30.20;85.20;;;;;;5141796;27;20663;-80
2022/08/23 10:33:28;;;;;;;;;;;30.20;83.30;;;;;;5096928;27;19977;-81
2022/08/23 10:35:57;;;;;;;;;;;30.00;82.00;;;;;;5084869;28;20461;-81
2022/08/23 10:38:49;;;;;;;;;;;30.00;84.50;;;;;;5100623;28;20014;-84
2022/08/23 10:41:34;;;;;;;;;;;29.80;81.60;;;;;;5102772;27;19943;-79
2022/08/23 10:44:06;;;;;;;;;;;29.80;84.70;;;;;;5109187;27;19957;-81
2022/08/23 10:46:36;;;;;;;;;;;30.00;80.30;;;;;;5108344;27;19943;-81
2022/08/23 10:49:02;;;;;;;;;;;29.90;80.60;;;;;;5110003;27;19928;-81
2022/08/23 10:51:40;;;;;;;;;;;30.00;82.90;;;;;;5111800;27;19924;-82
2022/08/23 10:54:12;;;;;;;;;;;30.00;78.10;;;;;;5115152;27;20033;-83
2022/08/23 10:56:37;;;;;;;;;;;29.80;78.90;;;;;;5100997;27;19930;-82
2022/08/23 10:59:03;;;;;;;;;;;29.90;82.50;;;;;;5127206;27;19932;-81
2022/08/23 11:01:38;;;;;;;;;;;30.00;83.00;;;;;;5120604;27;19980;-82
2022/08/23 11:04:06;;;;;;;;;;;30.10;79.00;;;;;;5113758;27;19935;-80
2022/08/23 11:06:35;;;;;;;;;;;30.00;79.00;;;;;;5141180;27;19943;-83
2022/08/23 11:09:05;;;;;;;;;;;29.90;78.80;;;;;;5124183;27;20011;-79
2022/08/23 11:11:38;;;;;;;;;;;30.00;79.10;;;;;;5114833;27;20395;-81
2022/08/23 11:14:07;;;;;;;;;;;30.10;78.80;;;;;;5106535;27;20033;-75
2022/08/23 11:16:33;;;;;;;;;;;30.10;78.00;;;;;;5109787;27;19923;-82
2022/08/23 11:18:59;;;;;;;;;;;30.30;81.70;;;;;;5094236;27;19924;-81
2022/08/23 11:21:27;;;;;;;;;;;30.50;81.00;;;;;;5089809;28;19980;-84
2022/08/23 11:23:57;;;;;;;;;;;30.80;79.70;;;;;;5099287;27;19923;-83
2022/08/23 11:26:25;;;;;;;;;;;30.70;75.10;;;;;;5091378;27;19924;-82
2022/08/23 11:29:14;;;;;;;;;;;30.60;75.70;;;;;;5090542;28;19928;-79
2022/08/23 11:31:42;;;;;;;;;;;30.80;77.30;;;;;;5075017;28;20444;-84
2022/08/23 11:34:10;;;;;;;;;;;30.80;77.00;;;;;;5105199;28;19976;-85
2022/08/23 11:36:36;;;;;;;;;;;31.00;76.50;;;;;;5106759;27;19924;-81
2022/08/23 11:39:04;;;;;;;;;;;31.00;76.10;;;;;;5088838;27;19977;-83
2022/08/23 11:41:32;;;;;;;;;;;31.00;73.90;;;;;;5135710;27;19936;-83
2022/08/23 11:44:02;;;;;;;;;;;31.00;72.40;;;;;;5098371;27;19927;-81
2022/08/23 11:46:30;;;;;;;;;;;31.00;73.70;;;;;;5127223;27;19924;-81
2022/08/23 11:48:59;;;;;;;;;;;31.00;73.40;;;;;;5107081;27;20029;-82
2022/08/23 11:51:43;;;;;;;;;;;31.10;75.40;;;;;;5102928;27;19930;-81
2022/08/23 11:54:23;;;;;;;;;;;31.10;73.40;;;;;;5086567;28;20468;-84
2022/08/23 11:57:02;;;;;;;;;;;31.10;70.40;;;;;;5102333;27;20010;-83
2022/08/23 11:59:46;;;;;;;;;;;31.20;72.10;;;;;;5093311;28;19938;-82
2022/08/23 12:02:31;;;;;;;;;;;31.20;75.10;;;;;;5122441;27;19934;-85
2022/08/23 12:04:58;;;;;;;;;;;31.30;72.60;;;;;;5116783;27;19986;-91
2022/08/23 12:07:43;;;;;;;;;;;31.30;71.90;;;;;;5117270;27;19927;-91
2022/08/23 12:10:13;;;;;;;;;;;31.30;72.80;;;;;;5125867;27;19967;-89
2022/08/23 12:12:41;;;;;;;;;;;31.20;71.50;;;;;;5105696;28;19928;-87
2022/08/23 12:15:09;;;;;;;;;;;31.20;72.50;;;;;;5098525;28;19928;-84
2022/08/23 12:17:35;;;;;;;;;;;31.10;71.00;;;;;;5115704;28;19924;-85
2022/08/23 12:20:08;;;;;;;;;;;31.00;71.40;;;;;;5115573;28;20475;-80
2022/08/23 12:22:53;;;;;;;;;;;30.90;74.40;;;;;;5114250;28;19931;-82
2022/08/23 12:25:20;;;;;;;;;;;30.80;73.70;;;;;;5141161;27;20010;-87
2022/08/23 12:27:54;;;;;;;;;;;30.80;73.40;;;;;;5114317;28;19932;-88
2022/08/23 12:30:22;;;;;;;;;;;30.60;74.30;;;;;;5117883;27;19989;-86
2022/08/23 12:32:51;;;;;;;;;;;30.60;72.90;;;;;;5112269;27;20328;-78
2022/08/23 12:35:24;;;;;;;;;;;30.60;73.20;;;;;;5114252;28;20027;-89
2022/08/23 12:38:03;;;;;;;;;;;30.60;74.00;;;;;;5110469;28;19924;-84
2022/08/23 12:40:30;;;;;;;;;;;30.60;73.00;;;;;;5114078;27;19924;-86
2022/08/23 12:43:10;;;;;;;;;;;30.50;71.00;;;;;;5111605;28;19970;-84
2022/08/23 12:45:41;;;;;;;;;;;30.40;69.90;;;;;;5116510;28;19924;-86
2022/08/23 12:48:08;;;;;;;;;;;30.10;70.30;;;;;;5124217;27;19938;-87
2022/08/23 12:50:42;;;;;;;;;;;29.90;72.60;;;;;;5121190;27;19981;-84
2022/08/23 12:53:13;;;;;;;;;;;29.80;72.80;;;;;;5109536;28;20124;-83
2022/08/23 12:55:40;;;;;;;;;;;29.70;75.70;;;;;;5093572;28;20271;-90
2022/08/23 12:58:10;;;;;;;;;;;29.70;73.30;;;;;;5104901;28;19954;-83
2022/08/23 13:00:43;;;;;;;;;;;29.60;74.50;;;;;;5113673;27;20026;-85
2022/08/23 13:03:20;;;;;;;;;;;29.50;74.60;;;;;;5116648;27;19923;-86
2022/08/23 13:05:48;;;;;;;;;;;29.40;74.20;;;;;;5088723;27;19932;-86
2022/08/23 13:08:21;;;;;;;;;;;29.20;74.60;;;;;;5121770;27;19939;-90
2022/08/23 13:10:47;;;;;;;;;;;29.10;75.40;;;;;;5113081;27;20386;-82
2022/08/23 13:13:17;;;;;;;;;;;29.00;74.40;;;;;;5085792;27;19923;-82
2022/08/23 13:15:47;;;;;;;;;;;29.00;74.20;;;;;;5092574;27;19923;-80
2022/08/23 13:18:24;;;;;;;;;;;29.00;74.40;;;;;;5112491;27;19932;-85
2022/08/23 13:21:08;;;;;;;;;;;28.90;76.00;;;;;;5087838;27;19924;-81
2022/08/23 13:23:34;;;;;;;;;;;28.90;77.40;;;;;;5129820;27;20003;-84
2022/08/23 13:26:21;;;;;;;;;;;28.80;74.30;;;;;;5078478;28;19932;-93
2022/08/23 13:29:06;;;;;;;;;;;28.80;75.50;;;;;;5124287;27;20406;-84
2022/08/23 13:31:50;;;;;;;;;;;28.80;76.60;;;;;;5099576;27;20287;-83
2022/08/23 13:34:35;;;;;;;;;;;28.80;76.60;;;;;;5117673;27;19992;-83
2022/08/23 13:37:02;;;;;;;;;;;28.70;77.00;;;;;;5128395;27;19939;-84
2022/08/23 13:39:29;;;;;;;;;;;28.70;74.00;;;;;;5115222;27;19920;-82
2022/08/23 13:41:56;;;;;;;;;;;28.70;77.60;;;;;;5095490;27;20414;-83
2022/08/23 13:44:22;;;;;;;;;;;28.70;75.30;;;;;;5122720;27;19927;-83
2022/08/23 13:46:47;;;;;;;;;;;28.70;76.80;;;;;;5114526;27;20351;-79
2022/08/23 13:49:13;;;;;;;;;;;28.60;76.40;;;;;;5126094;27;19984;-81
2022/08/23 13:51:40;;;;;;;;;;;28.60;77.60;;;;;;5107479;27;19931;-83
2022/08/23 13:54:07;;;;;;;;;;;28.50;77.70;;;;;;5100327;27;19954;-85
2022/08/23 13:56:35;;;;;;;;;;;28.50;75.90;;;;;;5115771;27;19919;-82
2022/08/23 13:59:17;;;;;;;;;;;28.40;77.30;;;;;;5116022;27;19959;-81
2022/08/23 14:01:44;;;;;;;;;;;28.30;74.40;;;;;;5102815;28;19927;-82
2022/08/23 14:04:10;;;;;;;;;;;28.30;77.10;;;;;;5109038;27;19928;-81
2022/08/23 14:06:35;;;;;;;;;;;28.20;75.90;;;;;;5092922;28;19920;-81
2022/08/23 14:09:01;;;;;;;;;;;28.10;78.10;;;;;;5112242;28;19975;-82
2022/08/23 14:11:27;;;;;;;;;;;28.10;76.90;;;;;;5110364;27;20516;-81
2022/08/23 14:13:53;;;;;;;;;;;28.10;77.80;;;;;;5107099;27;19928;-82
2022/08/23 14:16:25;;;;;;;;;;;28.10;78.50;;;;;;5106811;28;20550;-82
2022/08/23 14:18:50;;;;;;;;;;;28.00;75.90;;;;;;5108579;27;19924;-86
2022/08/23 14:21:16;;;;;;;;;;;28.00;76.30;;;;;;5110268;27;19924;-83
2022/08/23 14:23:42;;;;;;;;;;;27.90;77.30;;;;;;5107897;28;19958;-81
2022/08/23 14:26:11;;;;;;;;;;;27.80;78.20;;;;;;5097657;28;19947;-83
2022/08/23 14:28:37;;;;;;;;;;;27.70;78.40;;;;;;5124612;27;20002;-80
2022/08/23 14:31:03;;;;;;;;;;;27.70;78.90;;;;;;5093790;27;20010;-81
2022/08/23 14:33:29;;;;;;;;;;;27.60;77.90;;;;;;5107712;27;19938;-84
2022/08/23 14:35:56;;;;;;;;;;;27.70;78.50;;;;;;5124021;27;19927;-81
2022/08/23 14:38:21;;;;;;;;;;;27.60;77.50;;;;;;5092113;28;19924;-82
2022/08/23 14:40:52;;;;;;;;;;;27.60;77.00;;;;;;5113994;27;20341;-82
2022/08/23 14:43:19;;;;;;;;;;;27.60;78.30;;;;;;5107697;28;20448;-81
2022/08/23 14:45:45;;;;;;;;;;;27.70;78.40;;;;;;5108390;27;19931;-83